createdAt,value
2022-10-22T00:00:35.411Z,47.83
2022-10-22T00:03:03.196Z,47.53
2022-10-22T00:05:30.706Z,47.68
2022-10-22T00:07:58.163Z,47.79
2022-10-22T00:10:25.824Z,47.48
2022-10-22T00:12:53.377Z,47.52
2022-10-22T00:15:20.813Z,47.43
2022-10-22T00:17:49.673Z,46.74
2022-10-22T00:20:17.103Z,46.34
2022-10-22T00:22:44.615Z,46.19
2022-10-22T00:25:12.341Z,46.25
2022-10-22T00:27:39.935Z,45.89
2022-10-22T00:30:08.965Z,46.95
2022-10-22T00:32:36.719Z,46.21
2022-10-22T00:35:04.776Z,45.95
2022-10-22T00:37:32.200Z,46.28
2022-10-22T00:39:59.889Z,45.92
2022-10-22T00:42:30.259Z,46.43
2022-10-22T00:45:09.823Z,46.35
2022-10-22T00:47:38.014Z,46.80
2022-10-22T00:50:09.237Z,47.36
2022-10-22T00:52:37.001Z,47.47
2022-10-22T00:55:05.422Z,47.76
2022-10-22T00:57:34.491Z,47.67
2022-10-22T01:00:02.233Z,47.31
2022-10-22T01:02:29.658Z,47.25
2022-10-22T01:04:57.063Z,47.29
2022-10-22T01:07:26.150Z,47.62
2022-10-22T01:10:09.415Z,48.22
2022-10-22T01:12:45.105Z,48.37
2022-10-22T01:15:57.647Z,48.11
2022-10-22T01:18:49.391Z,47.99
2022-10-22T01:21:42.449Z,48.06
2022-10-22T01:24:21.599Z,47.72
2022-10-22T01:27:07.745Z,47.96
2022-10-22T01:29:47.014Z,48.23
2022-10-22T01:32:18.205Z,48.87
2022-10-22T01:34:50.210Z,48.82
2022-10-22T01:37:18.743Z,49.05
2022-10-22T01:39:47.252Z,49.17
2022-10-22T01:42:14.871Z,49.38
2022-10-22T01:44:42.306Z,49.15
2022-10-22T01:47:31.619Z,49.08
2022-10-22T01:50:02.909Z,48.85
2022-10-22T01:52:42.046Z,49.37
2022-10-22T01:55:28.889Z,48.75
2022-10-22T01:58:30.145Z,48.43
2022-10-22T02:01:03.744Z,49.11
2022-10-22T02:03:40.472Z,49.71
2022-10-22T02:06:14.217Z,49.39
2022-10-22T02:08:42.371Z,49.45
2022-10-22T02:11:12.314Z,48.99
2022-10-22T02:13:44.368Z,48.30
2022-10-22T02:16:15.707Z,47.69
2022-10-22T02:18:45.535Z,47.55
2022-10-22T02:21:13.490Z,47.52
2022-10-22T02:23:41.035Z,47.22
2022-10-22T02:26:27.187Z,47.15
2022-10-22T02:29:12.168Z,48.00
2022-10-22T02:31:41.073Z,48.53
2022-10-22T02:34:11.761Z,48.20
2022-10-22T02:36:40.664Z,48.83
2022-10-22T02:39:08.492Z,48.35
2022-10-22T02:41:37.789Z,47.99
2022-10-22T02:44:09.105Z,47.53
2022-10-22T02:46:40.385Z,47.36
2022-10-22T02:49:07.783Z,47.83
2022-10-22T02:51:35.170Z,48.06
2022-10-22T02:54:02.853Z,48.47
2022-10-22T02:56:30.316Z,48.89
2022-10-22T02:58:58.099Z,48.91
2022-10-22T03:01:25.869Z,48.83
2022-10-22T03:03:53.324Z,49.02
2022-10-22T03:06:21.293Z,49.00
2022-10-22T03:08:49.052Z,49.37
2022-10-22T03:11:16.482Z,49.33
2022-10-22T03:13:43.918Z,49.15
2022-10-22T03:16:11.613Z,49.43
2022-10-22T03:18:39.000Z,49.12
2022-10-22T03:21:11.469Z,48.71
2022-10-22T03:23:40.979Z,49.14
2022-10-22T03:26:09.091Z,49.23
2022-10-22T03:28:37.268Z,49.24
2022-10-22T03:31:05.001Z,50.73
2022-10-22T03:33:32.466Z,49.82
2022-10-22T03:36:00.734Z,49.57
2022-10-22T03:38:29.006Z,49.59
2022-10-22T03:40:56.443Z,49.76
2022-10-22T03:43:23.818Z,50.04
2022-10-22T03:45:51.458Z,50.90
2022-10-22T03:48:19.969Z,51.61
2022-10-22T03:50:47.367Z,51.73
2022-10-22T03:53:15.037Z,51.23
2022-10-22T03:55:42.446Z,51.02
2022-10-22T03:58:09.882Z,50.82
2022-10-22T04:00:37.759Z,51.04
2022-10-22T04:03:05.452Z,50.96
2022-10-22T04:05:34.100Z,50.76
2022-10-22T04:08:01.708Z,50.65
2022-10-22T04:10:29.556Z,50.32
2022-10-22T04:12:56.979Z,50.46
2022-10-22T04:15:26.891Z,50.71
2022-10-22T04:17:54.860Z,50.38
2022-10-22T04:20:22.266Z,50.35
2022-10-22T04:22:49.744Z,50.96
2022-10-22T04:25:17.430Z,50.95
2022-10-22T04:27:44.798Z,50.90
2022-10-22T04:30:13.224Z,50.43
2022-10-22T04:32:40.987Z,50.36
2022-10-22T04:35:08.609Z,50.49
2022-10-22T04:37:36.224Z,50.28
2022-10-22T04:40:04.557Z,50.36
2022-10-22T04:42:31.979Z,50.28
2022-10-22T04:44:59.386Z,50.51
2022-10-22T04:47:27.242Z,51.15
2022-10-22T04:49:54.644Z,50.80
2022-10-22T04:52:22.042Z,51.28
2022-10-22T04:54:49.688Z,51.24
2022-10-22T04:57:17.094Z,51.25
2022-10-22T04:59:44.486Z,51.08
2022-10-22T05:02:12.210Z,51.03
2022-10-22T05:04:39.697Z,51.82
2022-10-22T05:07:07.064Z,50.92
2022-10-22T05:09:34.794Z,50.63
2022-10-22T05:12:03.258Z,50.62
2022-10-22T05:14:30.694Z,50.65
2022-10-22T05:16:58.497Z,50.61
2022-10-22T05:19:27.788Z,50.90
2022-10-22T05:21:58.005Z,50.44
2022-10-22T05:24:26.689Z,51.21
2022-10-22T05:26:55.823Z,50.65
2022-10-22T05:29:23.550Z,50.65
2022-10-22T05:31:51.282Z,51.11
2022-10-22T05:34:19.039Z,50.94
2022-10-22T05:36:46.565Z,51.16
2022-10-22T05:39:14.257Z,50.55
2022-10-22T05:41:41.781Z,50.49
2022-10-22T05:44:11.613Z,50.50
2022-10-22T05:46:39.633Z,50.29
2022-10-22T05:49:07.993Z,50.59
2022-10-22T05:51:36.610Z,50.06
2022-10-22T05:54:06.567Z,50.20
2022-10-22T05:56:34.600Z,50.46
2022-10-22T06:01:33.126Z,50.33
2022-10-22T06:04:02.168Z,50.29
2022-10-22T06:06:32.985Z,50.18
2022-10-22T06:09:04.223Z,50.20
2022-10-22T06:11:34.313Z,50.25
2022-10-22T06:14:04.068Z,50.35
2022-10-22T06:16:32.180Z,50.24
2022-10-22T06:19:02.112Z,50.05
2022-10-22T06:21:30.483Z,50.00
2022-10-22T06:23:58.923Z,50.65
2022-10-22T06:26:26.617Z,50.39
2022-10-22T06:28:56.057Z,50.19
2022-10-22T06:31:24.754Z,50.85
2022-10-22T06:33:52.214Z,51.62
2022-10-22T06:36:21.887Z,51.40
2022-10-22T06:38:52.537Z,51.22
2022-10-22T06:41:22.167Z,50.33
2022-10-22T06:43:51.997Z,50.02
2022-10-22T06:46:21.281Z,49.70
2022-10-22T06:48:53.502Z,50.24
2022-10-22T06:51:21.298Z,50.37
2022-10-22T06:53:49.157Z,49.95
2022-10-22T06:56:20.030Z,49.60
2022-10-22T06:58:48.748Z,49.06
2022-10-22T07:01:18.251Z,48.88
2022-10-22T07:03:46.140Z,48.81
2022-10-22T07:06:15.054Z,48.32
2022-10-22T07:08:42.803Z,48.11
2022-10-22T07:11:23.423Z,48.39
2022-10-22T07:13:54.439Z,48.33
2022-10-22T07:16:22.339Z,48.28
2022-10-22T07:18:50.264Z,48.39
2022-10-22T07:21:19.284Z,48.88
2022-10-22T07:23:46.856Z,47.59
2022-10-22T07:26:16.180Z,47.50
2022-10-22T07:28:43.989Z,47.47
2022-10-22T07:31:13.252Z,47.11
2022-10-22T07:33:40.680Z,47.46
2022-10-22T07:36:11.187Z,47.28
2022-10-22T07:38:38.611Z,46.91
2022-10-22T07:41:06.172Z,47.34
2022-10-22T07:43:33.941Z,47.15
2022-10-22T07:46:02.842Z,45.89
2022-10-22T07:48:30.465Z,44.57
2022-10-22T07:50:58.399Z,45.25
2022-10-22T07:53:25.842Z,45.16
2022-10-22T07:55:53.536Z,44.46
2022-10-22T07:58:22.234Z,44.88
2022-10-22T08:00:50.751Z,43.78
2022-10-22T08:03:18.706Z,44.18
2022-10-22T08:05:46.182Z,43.48
2022-10-22T08:08:14.770Z,42.14
2022-10-22T08:10:43.072Z,42.52
2022-10-22T08:13:10.658Z,42.93
2022-10-22T08:15:38.580Z,42.84
2022-10-22T08:18:06.345Z,43.19
2022-10-22T08:20:33.844Z,42.10
2022-10-22T08:23:01.385Z,43.48
2022-10-22T08:25:29.067Z,44.16
2022-10-22T08:27:56.524Z,43.33
2022-10-22T08:30:27.782Z,45.33
2022-10-22T08:32:56.026Z,44.87
2022-10-22T08:35:23.534Z,43.20
2022-10-22T08:37:51.010Z,43.01
2022-10-22T08:40:34.673Z,44.21
2022-10-22T08:43:13.577Z,43.57
2022-10-22T08:45:46.421Z,43.24
2022-10-22T08:48:14.495Z,43.96
2022-10-22T08:50:46.909Z,44.84
2022-10-22T08:53:19.408Z,43.02
2022-10-22T08:55:48.132Z,43.37
2022-10-22T08:58:50.455Z,42.44
2022-10-22T09:01:27.535Z,43.32
2022-10-22T09:04:07.429Z,44.18
2022-10-22T09:06:37.283Z,44.56
2022-10-22T09:09:11.966Z,42.88
2022-10-22T09:11:42.434Z,42.79
2022-10-22T09:17:01.700Z,43.14
2022-10-22T09:19:55.482Z,43.90
2022-10-22T09:22:45.277Z,43.33
2022-10-22T09:25:32.020Z,44.77
2022-10-22T09:27:59.805Z,44.92
2022-10-22T09:30:29.940Z,44.43
2022-10-22T09:33:13.190Z,43.90
2022-10-22T09:35:51.198Z,43.39
2022-10-22T09:38:21.442Z,43.16
2022-10-22T09:40:52.088Z,43.26
2022-10-22T09:43:19.998Z,43.57
2022-10-22T09:45:48.518Z,43.56
2022-10-22T09:48:28.421Z,43.29
2022-10-22T09:51:19.589Z,44.01
2022-10-22T09:53:58.345Z,44.40
2022-10-22T09:56:55.645Z,43.07
2022-10-22T09:59:37.016Z,43.11
2022-10-22T10:02:26.637Z,44.26
2022-10-22T10:05:03.767Z,44.15
2022-10-22T10:07:32.413Z,43.77
2022-10-22T10:09:59.950Z,44.36
2022-10-22T10:15:21.060Z,43.73
2022-10-22T10:18:04.117Z,44.23
2022-10-22T10:20:46.812Z,44.38
2022-10-22T10:23:27.024Z,44.76
2022-10-22T10:26:19.387Z,44.60
2022-10-22T10:28:50.125Z,44.77
2022-10-22T10:31:50.027Z,44.02
2022-10-22T10:34:29.785Z,44.61
2022-10-22T10:37:16.303Z,44.07
2022-10-22T10:40:14.664Z,44.78
2022-10-22T10:43:04.290Z,45.06
2022-10-22T10:45:39.665Z,44.51
2022-10-22T10:48:15.250Z,44.11
2022-10-22T10:50:56.118Z,44.59
2022-10-22T10:53:41.060Z,44.66
2022-10-22T10:56:47.807Z,45.10
2022-10-22T10:59:33.976Z,44.26
2022-10-22T11:02:25.967Z,44.33
2022-10-22T11:05:14.565Z,44.17
2022-10-22T11:07:52.124Z,44.42
2022-10-22T11:10:28.324Z,44.46
2022-10-22T11:13:10.931Z,44.45
2022-10-22T11:15:39.955Z,44.32
2022-10-22T11:18:40.376Z,45.05
2022-10-22T11:21:13.472Z,44.78
2022-10-22T11:23:56.413Z,44.60
2022-10-22T11:26:48.562Z,46.34
2022-10-22T11:29:27.223Z,46.35
2022-10-22T11:31:57.487Z,45.62
2022-10-22T11:34:34.259Z,45.76
2022-10-22T11:37:04.150Z,45.52
2022-10-22T11:39:33.758Z,45.52
2022-10-22T11:42:07.279Z,45.17
2022-10-22T11:44:46.717Z,45.23
2022-10-22T11:47:21.132Z,44.43
2022-10-22T11:50:16.037Z,45.17
2022-10-22T11:53:04.899Z,45.50
2022-10-22T11:55:48.445Z,45.66
2022-10-22T11:58:44.009Z,45.49
2022-10-22T12:01:11.595Z,46.14
2022-10-22T12:03:50.734Z,45.98
2022-10-22T12:06:23.156Z,46.17
2022-10-22T12:08:54.160Z,46.45
2022-10-22T12:11:47.816Z,46.28
2022-10-22T12:14:28.094Z,45.77
2022-10-22T12:17:07.694Z,45.51
2022-10-22T12:19:43.612Z,45.43
2022-10-22T12:22:19.120Z,45.88
2022-10-22T12:24:54.766Z,45.56
2022-10-22T12:27:26.077Z,45.55
2022-10-22T12:29:56.287Z,45.41
2022-10-22T12:32:29.335Z,45.33
2022-10-22T12:34:56.992Z,45.31
2022-10-22T12:37:24.371Z,45.65
2022-10-22T12:39:51.867Z,46.09
2022-10-22T12:42:19.589Z,46.00
2022-10-22T12:44:47.015Z,45.98
2022-10-22T12:47:17.011Z,46.14
2022-10-22T12:49:47.809Z,45.81
2022-10-22T12:52:18.749Z,45.58
2022-10-22T12:54:48.313Z,45.73
2022-10-22T12:57:17.725Z,45.74
2022-10-22T12:59:49.964Z,46.03
2022-10-22T13:02:17.817Z,46.25
2022-10-22T13:05:14.612Z,45.74
2022-10-22T13:07:47.063Z,45.85
2022-10-22T13:10:19.324Z,46.00
2022-10-22T13:12:50.755Z,46.05
2022-10-22T13:15:22.589Z,46.08
2022-10-22T13:17:50.413Z,46.10
2022-10-22T13:20:21.626Z,46.18
2022-10-22T13:23:00.548Z,46.26
2022-10-22T13:25:33.711Z,46.53
2022-10-22T13:28:04.052Z,47.13
2022-10-22T13:30:35.081Z,47.11
2022-10-22T13:33:36.079Z,47.29
2022-10-22T13:36:04.215Z,47.58
2022-10-22T13:38:31.728Z,48.35
2022-10-22T13:40:59.503Z,48.39
2022-10-22T13:43:27.547Z,49.23
2022-10-22T13:45:58.470Z,48.78
2022-10-22T13:48:26.849Z,50.53
2022-10-22T13:50:54.670Z,50.34
2022-10-22T13:53:24.446Z,50.16
2022-10-22T13:55:52.197Z,50.40
2022-10-22T13:58:23.890Z,50.57
2022-10-22T14:00:57.086Z,51.59
2022-10-22T14:03:33.356Z,52.09
2022-10-22T14:06:01.472Z,53.54
2022-10-22T14:08:29.633Z,53.76
2022-10-22T14:10:57.116Z,53.78
2022-10-22T14:13:24.545Z,55.79
2022-10-22T14:15:52.941Z,54.54
2022-10-22T14:18:27.316Z,54.16
2022-10-22T14:21:00.102Z,52.90
2022-10-22T14:23:30.009Z,53.26
2022-10-22T14:25:59.316Z,53.81
2022-10-22T14:28:27.138Z,52.05
2022-10-22T14:30:55.006Z,52.29
2022-10-22T14:33:31.914Z,51.82
2022-10-22T14:36:00.679Z,51.65
2022-10-22T14:38:29.107Z,53.08
2022-10-22T14:40:57.807Z,52.94
2022-10-22T14:43:27.757Z,51.47
2022-10-22T14:45:55.534Z,52.39
2022-10-22T14:48:23.974Z,51.77
2022-10-22T14:50:51.692Z,52.09
2022-10-22T14:53:19.484Z,51.81
2022-10-22T14:55:48.991Z,51.29
2022-10-22T14:58:16.479Z,51.10
2022-10-22T15:00:44.390Z,51.47
2022-10-22T15:03:11.983Z,52.50
2022-10-22T15:05:45.796Z,51.95
2022-10-22T15:08:14.547Z,54.42
2022-10-22T15:10:42.506Z,53.28
2022-10-22T15:13:10.059Z,53.70
2022-10-22T15:15:41.243Z,53.34
2022-10-22T15:18:08.847Z,54.18
2022-10-22T15:20:36.342Z,53.52
2022-10-22T15:23:04.162Z,53.93
2022-10-22T15:25:31.790Z,53.45
2022-10-22T15:28:03.415Z,53.84
2022-10-22T15:30:37.143Z,55.20
2022-10-22T15:33:04.780Z,53.80
2022-10-22T15:35:32.367Z,54.22
2022-10-22T15:38:00.233Z,55.25
2022-10-22T15:40:27.711Z,55.64
2022-10-22T15:42:55.268Z,54.16
2022-10-22T15:45:25.013Z,55.10
2022-10-22T15:47:52.556Z,54.59
2022-10-22T15:50:20.010Z,55.22
2022-10-22T15:52:47.975Z,55.98
2022-10-22T15:55:15.777Z,56.33
2022-10-22T15:57:44.046Z,55.34
2022-10-22T16:00:12.717Z,58.24
2022-10-22T16:02:40.313Z,57.18
2022-10-22T16:05:08.447Z,60.27
2022-10-22T16:07:35.933Z,58.85
2022-10-22T16:10:04.359Z,60.45
2022-10-22T16:12:32.024Z,59.03
2022-10-22T16:14:59.466Z,58.69
2022-10-22T16:17:26.903Z,58.37
2022-10-22T16:19:54.704Z,59.00
2022-10-22T16:22:22.266Z,58.67
2022-10-22T16:24:49.670Z,58.81
2022-10-22T16:27:17.573Z,58.35
2022-10-22T16:29:45.156Z,58.35
2022-10-22T16:32:13.305Z,59.59
2022-10-22T16:34:42.232Z,59.02
2022-10-22T16:37:12.617Z,59.94
2022-10-22T16:39:40.025Z,59.83
2022-10-22T16:42:07.742Z,60.18
2022-10-22T16:44:35.236Z,61.02
2022-10-22T16:47:02.706Z,59.39
2022-10-22T16:49:30.576Z,59.99
2022-10-22T16:51:58.274Z,59.21
2022-10-22T16:54:26.335Z,60.21
2022-10-22T16:56:54.110Z,59.33
2022-10-22T16:59:21.573Z,59.35
2022-10-22T17:01:49.115Z,60.00
2022-10-22T17:04:17.533Z,59.76
2022-10-22T17:06:45.122Z,59.68
2022-10-22T17:09:13.598Z,60.04
2022-10-22T17:11:42.688Z,59.49
2022-10-22T17:14:11.984Z,59.64
2022-10-22T17:16:39.477Z,60.70
2022-10-22T17:19:07.308Z,59.65
2022-10-22T17:21:35.024Z,59.47
2022-10-22T17:24:02.673Z,59.20
2022-10-22T17:26:33.241Z,59.42
2022-10-22T17:29:00.933Z,59.55
2022-10-22T17:31:32.683Z,59.69
2022-10-22T17:34:00.614Z,59.38
2022-10-22T17:36:31.790Z,60.21
2022-10-22T17:39:05.357Z,59.93
2022-10-22T17:41:35.381Z,60.38
2022-10-22T17:44:05.407Z,59.82
2022-10-22T17:46:33.043Z,59.94
2022-10-22T17:49:04.013Z,59.83
2022-10-22T17:51:32.055Z,60.18
2022-10-22T17:53:59.720Z,59.89
2022-10-22T17:56:29.981Z,59.85
2022-10-22T17:58:59.815Z,59.76
2022-10-22T18:01:31.642Z,59.90
2022-10-22T18:04:01.812Z,59.91
2022-10-22T18:06:30.127Z,59.92
2022-10-22T18:08:57.707Z,59.72
2022-10-22T18:11:27.192Z,59.63
2022-10-22T18:13:56.746Z,59.58
2022-10-22T18:16:25.133Z,60.00
2022-10-22T18:18:56.889Z,59.97
2022-10-22T18:21:27.818Z,60.20
2022-10-22T18:23:57.124Z,59.87
2022-10-22T18:26:26.875Z,59.76
2022-10-22T18:28:56.894Z,59.90
2022-10-22T18:31:25.877Z,59.75
2022-10-22T18:36:27.669Z,59.86
2022-10-22T18:38:57.507Z,59.59
2022-10-22T18:41:26.088Z,59.75
2022-10-22T18:43:56.079Z,59.79
2022-10-22T18:46:24.223Z,59.68
2022-10-22T18:48:58.828Z,59.64
2022-10-22T18:51:30.183Z,59.58
2022-10-22T18:54:05.758Z,59.75
2022-10-22T18:56:47.145Z,59.56
2022-10-22T18:59:23.050Z,59.77
2022-10-22T19:01:57.570Z,59.77
2022-10-22T19:04:31.004Z,60.04
2022-10-22T19:07:05.579Z,59.56
2022-10-22T19:09:33.133Z,59.75
2022-10-22T19:12:01.099Z,59.56
2022-10-22T19:14:28.720Z,59.67
2022-10-22T19:16:56.348Z,60.34
2022-10-22T19:19:24.613Z,59.81
2022-10-22T19:21:52.211Z,59.86
2022-10-22T19:24:20.339Z,59.48
2022-10-22T19:26:48.962Z,59.55
2022-10-22T19:29:18.151Z,59.79
2022-10-22T19:31:47.660Z,59.89
2022-10-22T19:34:15.533Z,59.79
2022-10-22T19:36:43.137Z,59.48
2022-10-22T19:39:10.860Z,59.45
2022-10-22T19:41:38.937Z,59.26
2022-10-22T19:44:06.517Z,59.15
2022-10-22T19:46:34.215Z,59.48
2022-10-22T19:49:02.789Z,59.46
2022-10-22T19:51:31.344Z,59.15
2022-10-22T19:54:04.892Z,59.26
2022-10-22T19:56:33.841Z,58.79
2022-10-22T19:59:02.733Z,59.05
2022-10-22T20:01:31.897Z,58.92
2022-10-22T20:04:01.457Z,59.55
2022-10-22T20:06:29.728Z,58.87
2022-10-22T20:08:58.179Z,58.45
2022-10-22T20:11:28.728Z,58.67
2022-10-22T20:13:57.262Z,59.21
2022-10-22T20:16:28.649Z,59.24
2022-10-22T20:19:01.547Z,59.18
2022-10-22T20:21:29.227Z,59.28
2022-10-22T20:23:57.769Z,58.96
2022-10-22T20:26:28.187Z,59.77
2022-10-22T20:28:57.646Z,59.25
2022-10-22T20:31:28.569Z,59.14
2022-10-22T20:34:01.167Z,59.00
2022-10-22T20:36:30.478Z,58.77
2022-10-22T20:39:03.372Z,58.98
2022-10-22T20:41:33.989Z,59.47
2022-10-22T20:44:01.642Z,59.01
2022-10-22T20:46:31.100Z,59.20
2022-10-22T20:49:10.087Z,59.47
2022-10-22T20:51:38.118Z,59.25
2022-10-22T20:54:07.545Z,59.17
2022-10-22T20:56:36.051Z,59.07
2022-10-22T20:59:04.714Z,59.49
2022-10-22T21:01:40.369Z,59.52
2022-10-22T21:04:08.868Z,59.66
2022-10-22T21:06:38.291Z,59.61
2022-10-22T21:09:11.069Z,59.68
2022-10-22T21:11:40.263Z,59.99
2022-10-22T21:14:09.267Z,59.57
2022-10-22T21:16:40.920Z,59.32
2022-10-22T21:19:08.824Z,60.31
2022-10-22T21:21:36.261Z,59.91
2022-10-22T21:24:03.955Z,59.18
2022-10-22T21:26:31.779Z,60.36
2022-10-22T21:28:59.243Z,59.31
2022-10-22T21:31:27.845Z,59.28
2022-10-22T21:33:55.666Z,58.87
2022-10-22T21:36:25.026Z,58.86
2022-10-22T21:38:52.855Z,59.03
2022-10-22T21:41:22.559Z,58.77
2022-10-22T21:43:50.401Z,58.87
2022-10-22T21:46:20.340Z,59.32
2022-10-22T21:48:52.833Z,59.07
2022-10-22T21:51:21.010Z,58.68
2022-10-22T21:53:49.027Z,58.67
2022-10-22T21:56:19.155Z,58.65
2022-10-22T21:58:46.937Z,59.36
2022-10-22T22:01:14.966Z,62.32
2022-10-22T22:03:44.491Z,62.54
2022-10-22T22:06:12.486Z,62.88
2022-10-22T22:08:40.423Z,63.90
2022-10-22T22:11:09.336Z,62.99
2022-10-22T22:13:37.171Z,65.03
2022-10-22T22:16:07.967Z,64.22
2022-10-22T22:18:36.219Z,65.25
2022-10-22T22:21:09.010Z,64.96
2022-10-22T22:23:38.531Z,64.62
2022-10-22T22:26:06.434Z,64.51
2022-10-22T22:28:34.163Z,64.28
2022-10-22T22:31:02.727Z,64.58
2022-10-22T22:33:30.133Z,64.30
2022-10-22T22:36:00.367Z,65.44
2022-10-22T22:38:29.073Z,66.07
2022-10-22T22:40:59.329Z,65.92
2022-10-22T22:43:26.949Z,67.79
2022-10-22T22:46:06.636Z,67.01
2022-10-22T22:48:34.800Z,68.17
2022-10-22T22:51:06.370Z,69.22
2022-10-22T22:53:34.864Z,69.65
2022-10-22T22:56:09.386Z,69.10
2022-10-22T22:58:37.886Z,69.93
2022-10-22T23:01:19.262Z,70.39
2022-10-22T23:03:58.674Z,70.09
2022-10-22T23:06:28.506Z,71.07
2022-10-22T23:08:56.989Z,71.76
2022-10-22T23:11:26.112Z,70.50
2022-10-22T23:13:59.548Z,71.63
2022-10-22T23:16:29.124Z,72.51
2022-10-22T23:18:57.685Z,72.02
2022-10-22T23:21:27.246Z,70.97
2022-10-22T23:23:57.446Z,72.95
2022-10-22T23:26:28.743Z,71.16
2022-10-22T23:29:01.003Z,71.49
2022-10-22T23:31:28.770Z,70.63
2022-10-22T23:33:57.392Z,69.70
2022-10-22T23:36:24.830Z,71.42
2022-10-22T23:38:52.576Z,70.84
2022-10-22T23:41:21.004Z,69.40
2022-10-22T23:43:50.133Z,69.31
2022-10-22T23:46:17.914Z,68.22
2022-10-22T23:48:45.685Z,69.34
2022-10-22T23:51:15.501Z,67.44
2022-10-22T23:53:44.310Z,69.78
2022-10-22T23:56:16.592Z,68.89
2022-10-22T23:58:44.958Z,68.77
